sensor_id;sensor_type;location;lat;lon;timestamp;P1;durP1;ratioP1;P2;durP2;ratioP2
15342;SDS011;7771;48.478;8.936;2023-05-08T00:02:20;6.47;;;5.63;;
15342;SDS011;7771;48.478;8.936;2023-05-08T00:04:48;4.70;;;4.30;;
15342;SDS011;7771;48.478;8.936;2023-05-08T00:07:15;4.70;;;4.30;;
15342;SDS011;7771;48.478;8.936;2023-05-08T00:09:43;5.50;;;4.70;;
15342;SDS011;7771;48.478;8.936;2023-05-08T00:12:09;5.33;;;4.83;;
15342;SDS011;7771;48.478;8.936;2023-05-08T00:14:38;5.47;;;4.87;;
15342;SDS011;7771;48.478;8.936;2023-05-08T00:17:05;5.05;;;4.50;;
15342;SDS011;7771;48.478;8.936;2023-05-08T00:19:32;7.75;;;4.85;;
15342;SDS011;7771;48.478;8.936;2023-05-08T00:21:59;5.68;;;4.90;;
15342;SDS011;7771;48.478;8.936;2023-05-08T00:24:27;8.20;;;5.20;;
15342;SDS011;7771;48.478;8.936;2023-05-08T00:26:54;5.00;;;4.50;;
15342;SDS011;7771;48.478;8.936;2023-05-08T00:29:22;5.33;;;4.83;;
15342;SDS011;7771;48.478;8.936;2023-05-08T00:31:48;5.35;;;4.85;;
15342;SDS011;7771;48.478;8.936;2023-05-08T00:34:17;5.93;;;5.00;;
15342;SDS011;7771;48.478;8.936;2023-05-08T00:36:44;6.13;;;4.70;;
15342;SDS011;7771;48.478;8.936;2023-05-08T00:39:10;5.23;;;4.73;;
15342;SDS011;7771;48.478;8.936;2023-05-08T00:41:38;6.07;;;4.60;;
15342;SDS011;7771;48.478;8.936;2023-05-08T00:44:06;4.90;;;4.40;;
15342;SDS011;7771;48.478;8.936;2023-05-08T00:46:32;4.95;;;4.40;;
15342;SDS011;7771;48.478;8.936;2023-05-08T00:48:59;5.17;;;4.20;;
15342;SDS011;7771;48.478;8.936;2023-05-08T00:51:27;6.03;;;4.77;;
15342;SDS011;7771;48.478;8.936;2023-05-08T00:53:54;6.73;;;4.60;;
15342;SDS011;7771;48.478;8.936;2023-05-08T00:56:22;5.15;;;4.43;;
15342;SDS011;7771;48.478;8.936;2023-05-08T00:58:49;4.77;;;4.37;;
15342;SDS011;7771;48.478;8.936;2023-05-08T01:01:16;6.10;;;5.23;;
15342;SDS011;7771;48.478;8.936;2023-05-08T01:03:43;5.15;;;4.75;;
15342;SDS011;7771;48.478;8.936;2023-05-08T01:06:10;5.07;;;4.60;;
15342;SDS011;7771;48.478;8.936;2023-05-08T01:08:37;5.03;;;4.40;;
15342;SDS011;7771;48.478;8.936;2023-05-08T01:11:13;4.70;;;4.30;;
15342;SDS011;7771;48.478;8.936;2023-05-08T01:13:51;5.85;;;4.70;;
15342;SDS011;7771;48.478;8.936;2023-05-08T01:16:28;4.93;;;4.50;;
15342;SDS011;7771;48.478;8.936;2023-05-08T01:18:53;5.00;;;4.50;;
15342;SDS011;7771;48.478;8.936;2023-05-08T01:21:26;6.77;;;4.80;;
15342;SDS011;7771;48.478;8.936;2023-05-08T01:23:52;6.00;;;5.13;;
15342;SDS011;7771;48.478;8.936;2023-05-08T01:26:31;5.80;;;4.90;;
15342;SDS011;7771;48.478;8.936;2023-05-08T01:29:01;7.12;;;5.12;;
15342;SDS011;7771;48.478;8.936;2023-05-08T01:31:42;8.30;;;5.67;;
15342;SDS011;7771;48.478;8.936;2023-05-08T01:34:25;5.20;;;4.73;;
15342;SDS011;7771;48.478;8.936;2023-05-08T01:36:51;5.80;;;5.30;;
15342;SDS011;7771;48.478;8.936;2023-05-08T01:39:30;8.93;;;5.57;;
15342;SDS011;7771;48.478;8.936;2023-05-08T01:44:38;7.27;;;5.03;;
15342;SDS011;7771;48.478;8.936;2023-05-08T01:47:05;6.90;;;5.70;;
15342;SDS011;7771;48.478;8.936;2023-05-08T01:49:33;5.93;;;5.28;;
15342;SDS011;7771;48.478;8.936;2023-05-08T01:52:01;5.37;;;4.87;;
15342;SDS011;7771;48.478;8.936;2023-05-08T01:54:29;8.43;;;4.93;;
15342;SDS011;7771;48.478;8.936;2023-05-08T01:56:56;5.53;;;5.03;;
15342;SDS011;7771;48.478;8.936;2023-05-08T01:59:23;7.30;;;5.10;;
15342;SDS011;7771;48.478;8.936;2023-05-08T02:01:51;5.60;;;5.10;;
15342;SDS011;7771;48.478;8.936;2023-05-08T02:04:17;8.03;;;5.37;;
15342;SDS011;7771;48.478;8.936;2023-05-08T02:06:44;5.30;;;4.80;;
15342;SDS011;7771;48.478;8.936;2023-05-08T02:09:11;7.93;;;5.40;;
15342;SDS011;7771;48.478;8.936;2023-05-08T02:11:38;6.50;;;5.63;;
15342;SDS011;7771;48.478;8.936;2023-05-08T02:14:04;27.30;;;15.07;;
15342;SDS011;7771;48.478;8.936;2023-05-08T02:16:33;23.87;;;13.87;;
15342;SDS011;7771;48.478;8.936;2023-05-08T02:19:00;7.60;;;6.20;;
15342;SDS011;7771;48.478;8.936;2023-05-08T02:21:26;5.90;;;5.27;;
15342;SDS011;7771;48.478;8.936;2023-05-08T02:23:55;13.53;;;9.80;;
15342;SDS011;7771;48.478;8.936;2023-05-08T02:26:21;11.07;;;6.73;;
15342;SDS011;7771;48.478;8.936;2023-05-08T02:28:49;6.93;;;6.23;;
15342;SDS011;7771;48.478;8.936;2023-05-08T02:31:16;8.53;;;6.03;;
15342;SDS011;7771;48.478;8.936;2023-05-08T02:33:44;6.60;;;6.00;;
15342;SDS011;7771;48.478;8.936;2023-05-08T02:36:12;6.60;;;6.00;;
15342;SDS011;7771;48.478;8.936;2023-05-08T02:38:38;8.47;;;6.27;;
15342;SDS011;7771;48.478;8.936;2023-05-08T02:41:05;7.97;;;5.90;;
15342;SDS011;7771;48.478;8.936;2023-05-08T02:43:31;7.20;;;6.50;;
15342;SDS011;7771;48.478;8.936;2023-05-08T02:46:17;7.03;;;6.20;;
15342;SDS011;7771;48.478;8.936;2023-05-08T02:51:28;6.40;;;5.80;;
15342;SDS011;7771;48.478;8.936;2023-05-08T02:53:57;12.70;;;6.93;;
15342;SDS011;7771;48.478;8.936;2023-05-08T02:56:29;6.73;;;6.03;;
15342;SDS011;7771;48.478;8.936;2023-05-08T02:58:54;8.13;;;6.00;;
15342;SDS011;7771;48.478;8.936;2023-05-08T03:01:28;8.10;;;6.80;;
15342;SDS011;7771;48.478;8.936;2023-05-08T03:04:11;7.17;;;6.47;;
15342;SDS011;7771;48.478;8.936;2023-05-08T03:06:39;7.47;;;6.65;;
15342;SDS011;7771;48.478;8.936;2023-05-08T03:09:04;8.55;;;7.62;;
15342;SDS011;7771;48.478;8.936;2023-05-08T03:11:36;8.73;;;7.47;;
15342;SDS011;7771;48.478;8.936;2023-05-08T03:13:59;7.63;;;6.73;;
15342;SDS011;7771;48.478;8.936;2023-05-08T03:16:26;8.43;;;7.53;;
15342;SDS011;7771;48.478;8.936;2023-05-08T03:18:54;9.75;;;7.80;;
15342;SDS011;7771;48.478;8.936;2023-05-08T03:21:21;10.43;;;7.25;;
15342;SDS011;7771;48.478;8.936;2023-05-08T03:23:48;8.55;;;7.35;;
15342;SDS011;7771;48.478;8.936;2023-05-08T03:26:16;9.90;;;7.47;;
15342;SDS011;7771;48.478;8.936;2023-05-08T03:28:46;8.87;;;7.60;;
15342;SDS011;7771;48.478;8.936;2023-05-08T03:31:12;12.90;;;7.90;;
15342;SDS011;7771;48.478;8.936;2023-05-08T03:33:39;8.87;;;7.83;;
15342;SDS011;7771;48.478;8.936;2023-05-08T03:36:05;9.60;;;7.00;;
15342;SDS011;7771;48.478;8.936;2023-05-08T03:38:33;8.03;;;6.67;;
15342;SDS011;7771;48.478;8.936;2023-05-08T03:40:59;11.37;;;6.80;;
15342;SDS011;7771;48.478;8.936;2023-05-08T03:43:27;9.27;;;6.83;;
15342;SDS011;7771;48.478;8.936;2023-05-08T03:45:53;8.20;;;6.40;;
15342;SDS011;7771;48.478;8.936;2023-05-08T03:48:21;7.70;;;6.67;;
15342;SDS011;7771;48.478;8.936;2023-05-08T03:50:47;7.83;;;6.50;;
15342;SDS011;7771;48.478;8.936;2023-05-08T03:53:15;8.33;;;6.30;;
15342;SDS011;7771;48.478;8.936;2023-05-08T03:55:41;10.07;;;9.07;;
15342;SDS011;7771;48.478;8.936;2023-05-08T04:00:47;10.33;;;6.70;;
15342;SDS011;7771;48.478;8.936;2023-05-08T04:03:26;14.17;;;7.70;;
15342;SDS011;7771;48.478;8.936;2023-05-08T04:06:09;11.07;;;8.70;;
15342;SDS011;7771;48.478;8.936;2023-05-08T04:08:40;9.47;;;8.13;;
15342;SDS011;7771;48.478;8.936;2023-05-08T04:11:11;12.13;;;8.57;;
15342;SDS011;7771;48.478;8.936;2023-05-08T04:13:57;10.67;;;8.77;;
15342;SDS011;7771;48.478;8.936;2023-05-08T04:16:20;10.67;;;9.07;;
15342;SDS011;7771;48.478;8.936;2023-05-08T04:18:46;10.75;;;8.77;;
15342;SDS011;7771;48.478;8.936;2023-05-08T04:21:14;9.70;;;7.83;;
15342;SDS011;7771;48.478;8.936;2023-05-08T04:23:39;10.70;;;8.93;;
15342;SDS011;7771;48.478;8.936;2023-05-08T04:26:06;11.53;;;7.90;;
15342;SDS011;7771;48.478;8.936;2023-05-08T04:28:33;11.47;;;8.30;;
15342;SDS011;7771;48.478;8.936;2023-05-08T04:30:59;10.53;;;8.47;;
15342;SDS011;7771;48.478;8.936;2023-05-08T04:33:28;9.97;;;8.23;;
15342;SDS011;7771;48.478;8.936;2023-05-08T04:35:55;9.83;;;8.33;;
15342;SDS011;7771;48.478;8.936;2023-05-08T04:38:23;13.40;;;8.60;;
15342;SDS011;7771;48.478;8.936;2023-05-08T04:40:51;12.60;;;8.87;;
15342;SDS011;7771;48.478;8.936;2023-05-08T04:43:17;12.55;;;8.80;;
15342;SDS011;7771;48.478;8.936;2023-05-08T04:45:49;10.90;;;9.05;;
15342;SDS011;7771;48.478;8.936;2023-05-08T04:48:17;14.07;;;9.13;;
15342;SDS011;7771;48.478;8.936;2023-05-08T04:50:45;10.23;;;9.00;;
15342;SDS011;7771;48.478;8.936;2023-05-08T04:53:12;14.37;;;8.50;;
15342;SDS011;7771;48.478;8.936;2023-05-08T04:55:40;9.80;;;8.53;;
15342;SDS011;7771;48.478;8.936;2023-05-08T04:58:09;11.83;;;8.07;;
15342;SDS011;7771;48.478;8.936;2023-05-08T05:00:35;10.17;;;7.80;;
15342;SDS011;7771;48.478;8.936;2023-05-08T05:03:03;8.07;;;7.23;;
15342;SDS011;7771;48.478;8.936;2023-05-08T05:05:30;11.00;;;8.30;;
15342;SDS011;7771;48.478;8.936;2023-05-08T05:07:58;9.33;;;8.23;;
15342;SDS011;7771;48.478;8.936;2023-05-08T05:10:26;11.47;;;7.13;;
15342;SDS011;7771;48.478;8.936;2023-05-08T05:12:54;8.47;;;7.67;;
15342;SDS011;7771;48.478;8.936;2023-05-08T05:15:22;7.97;;;7.18;;
15342;SDS011;7771;48.478;8.936;2023-05-08T05:17:50;8.73;;;7.43;;
15342;SDS011;7771;48.478;8.936;2023-05-08T05:20:17;10.10;;;7.75;;
15342;SDS011;7771;48.478;8.936;2023-05-08T05:22:44;8.90;;;7.55;;
15342;SDS011;7771;48.478;8.936;2023-05-08T05:25:13;9.35;;;7.55;;
15342;SDS011;7771;48.478;8.936;2023-05-08T05:27:40;8.38;;;7.18;;
15342;SDS011;7771;48.478;8.936;2023-05-08T05:30:09;10.55;;;7.50;;
15342;SDS011;7771;48.478;8.936;2023-05-08T05:32:35;10.02;;;7.43;;
15342;SDS011;7771;48.478;8.936;2023-05-08T05:35:02;8.13;;;7.30;;
15342;SDS011;7771;48.478;8.936;2023-05-08T05:37:29;8.50;;;7.30;;
15342;SDS011;7771;48.478;8.936;2023-05-08T05:39:57;7.70;;;7.00;;
15342;SDS011;7771;48.478;8.936;2023-05-08T05:42:23;8.45;;;7.57;;
15342;SDS011;7771;48.478;8.936;2023-05-08T05:44:50;7.65;;;6.87;;
15342;SDS011;7771;48.478;8.936;2023-05-08T05:47:17;7.85;;;6.70;;
15342;SDS011;7771;48.478;8.936;2023-05-08T05:49:44;7.27;;;6.57;;
15342;SDS011;7771;48.478;8.936;2023-05-08T05:52:12;8.63;;;7.13;;
15342;SDS011;7771;48.478;8.936;2023-05-08T05:54:38;7.87;;;7.17;;
15342;SDS011;7771;48.478;8.936;2023-05-08T05:57:04;7.60;;;6.70;;
15342;SDS011;7771;48.478;8.936;2023-05-08T05:59:32;8.30;;;6.97;;
15342;SDS011;7771;48.478;8.936;2023-05-08T06:01:58;8.63;;;7.17;;
15342;SDS011;7771;48.478;8.936;2023-05-08T06:04:26;8.50;;;7.00;;
15342;SDS011;7771;48.478;8.936;2023-05-08T06:06:54;9.88;;;7.20;;
15342;SDS011;7771;48.478;8.936;2023-05-08T06:09:20;9.80;;;8.80;;
15342;SDS011;7771;48.478;8.936;2023-05-08T06:11:48;8.23;;;7.43;;
15342;SDS011;7771;48.478;8.936;2023-05-08T06:14:15;10.73;;;8.40;;
15342;SDS011;7771;48.478;8.936;2023-05-08T06:16:42;10.47;;;8.77;;
15342;SDS011;7771;48.478;8.936;2023-05-08T06:19:11;9.48;;;8.48;;
15342;SDS011;7771;48.478;8.936;2023-05-08T06:21:37;9.47;;;8.40;;
15342;SDS011;7771;48.478;8.936;2023-05-08T06:24:05;9.90;;;8.90;;
15342;SDS011;7771;48.478;8.936;2023-05-08T06:26:31;10.68;;;8.82;;
15342;SDS011;7771;48.478;8.936;2023-05-08T06:28:59;9.77;;;8.70;;
15342;SDS011;7771;48.478;8.936;2023-05-08T06:31:26;10.02;;;8.18;;
15342;SDS011;7771;48.478;8.936;2023-05-08T06:33:53;10.02;;;8.45;;
15342;SDS011;7771;48.478;8.936;2023-05-08T06:36:20;13.38;;;9.15;;
15342;SDS011;7771;48.478;8.936;2023-05-08T06:38:48;10.65;;;8.55;;
15342;SDS011;7771;48.478;8.936;2023-05-08T06:41:15;12.52;;;8.90;;
15342;SDS011;7771;48.478;8.936;2023-05-08T06:43:43;9.65;;;8.15;;
15342;SDS011;7771;48.478;8.936;2023-05-08T06:46:10;8.55;;;7.68;;
15342;SDS011;7771;48.478;8.936;2023-05-08T06:48:38;9.55;;;8.40;;
15342;SDS011;7771;48.478;8.936;2023-05-08T06:51:05;10.57;;;9.38;;
15342;SDS011;7771;48.478;8.936;2023-05-08T06:53:32;9.95;;;8.93;;
15342;SDS011;7771;48.478;8.936;2023-05-08T06:56:00;10.63;;;9.50;;
15342;SDS011;7771;48.478;8.936;2023-05-08T06:58:27;10.05;;;8.73;;
15342;SDS011;7771;48.478;8.936;2023-05-08T07:00:54;9.68;;;7.93;;
15342;SDS011;7771;48.478;8.936;2023-05-08T07:03:20;10.57;;;8.57;;
15342;SDS011;7771;48.478;8.936;2023-05-08T07:05:48;9.15;;;8.20;;
15342;SDS011;7771;48.478;8.936;2023-05-08T07:08:16;10.95;;;9.23;;
15342;SDS011;7771;48.478;8.936;2023-05-08T07:10:43;9.65;;;8.63;;
15342;SDS011;7771;48.478;8.936;2023-05-08T07:13:10;9.10;;;8.23;;
15342;SDS011;7771;48.478;8.936;2023-05-08T07:15:38;10.75;;;8.63;;
15342;SDS011;7771;48.478;8.936;2023-05-08T07:18:06;9.70;;;8.48;;
15342;SDS011;7771;48.478;8.936;2023-05-08T07:20:33;9.60;;;8.65;;
15342;SDS011;7771;48.478;8.936;2023-05-08T07:23:01;8.80;;;7.90;;
15342;SDS011;7771;48.478;8.936;2023-05-08T07:25:27;9.07;;;8.18;;
15342;SDS011;7771;48.478;8.936;2023-05-08T07:27:55;8.63;;;7.70;;
15342;SDS011;7771;48.478;8.936;2023-05-08T07:30:23;8.85;;;7.95;;
15342;SDS011;7771;48.478;8.936;2023-05-08T07:32:51;9.15;;;8.25;;
15342;SDS011;7771;48.478;8.936;2023-05-08T07:35:19;9.95;;;8.63;;
15342;SDS011;7771;48.478;8.936;2023-05-08T07:37:46;9.20;;;7.50;;
15342;SDS011;7771;48.478;8.936;2023-05-08T07:40:13;9.60;;;8.68;;
15342;SDS011;7771;48.478;8.936;2023-05-08T07:42:40;10.77;;;9.27;;
15342;SDS011;7771;48.478;8.936;2023-05-08T07:45:09;10.50;;;8.95;;
15342;SDS011;7771;48.478;8.936;2023-05-08T07:47:36;10.77;;;8.82;;
15342;SDS011;7771;48.478;8.936;2023-05-08T07:50:02;9.25;;;8.35;;
15342;SDS011;7771;48.478;8.936;2023-05-08T07:52:30;9.63;;;8.20;;
15342;SDS011;7771;48.478;8.936;2023-05-08T07:54:58;10.02;;;8.43;;
15342;SDS011;7771;48.478;8.936;2023-05-08T07:57:25;11.15;;;8.85;;
15342;SDS011;7771;48.478;8.936;2023-05-08T07:59:53;9.68;;;8.68;;
15342;SDS011;7771;48.478;8.936;2023-05-08T08:02:20;9.90;;;8.80;;
15342;SDS011;7771;48.478;8.936;2023-05-08T08:04:49;10.77;;;8.77;;
15342;SDS011;7771;48.478;8.936;2023-05-08T08:07:18;10.00;;;8.90;;
15342;SDS011;7771;48.478;8.936;2023-05-08T08:09:45;11.07;;;9.45;;
15342;SDS011;7771;48.478;8.936;2023-05-08T08:12:11;10.25;;;9.02;;
15342;SDS011;7771;48.478;8.936;2023-05-08T08:14:38;10.02;;;8.43;;
15342;SDS011;7771;48.478;8.936;2023-05-08T08:17:05;11.10;;;8.60;;
15342;SDS011;7771;48.478;8.936;2023-05-08T08:19:34;11.25;;;8.30;;
15342;SDS011;7771;48.478;8.936;2023-05-08T08:22:01;9.23;;;7.85;;
15342;SDS011;7771;48.478;8.936;2023-05-08T08:24:29;9.52;;;7.28;;
15342;SDS011;7771;48.478;8.936;2023-05-08T08:26:55;7.50;;;6.70;;
15342;SDS011;7771;48.478;8.936;2023-05-08T08:29:22;9.18;;;8.18;;
15342;SDS011;7771;48.478;8.936;2023-05-08T08:31:49;9.45;;;8.45;;
15342;SDS011;7771;48.478;8.936;2023-05-08T08:34:16;9.10;;;8.20;;
15342;SDS011;7771;48.478;8.936;2023-05-08T08:36:44;8.18;;;7.35;;
15342;SDS011;7771;48.478;8.936;2023-05-08T08:39:13;7.22;;;6.53;;
15342;SDS011;7771;48.478;8.936;2023-05-08T08:41:39;8.35;;;6.78;;
15342;SDS011;7771;48.478;8.936;2023-05-08T08:44:06;9.13;;;6.32;;
15342;SDS011;7771;48.478;8.936;2023-05-08T08:46:34;5.85;;;5.35;;
15342;SDS011;7771;48.478;8.936;2023-05-08T08:49:02;8.20;;;6.00;;
15342;SDS011;7771;48.478;8.936;2023-05-08T08:51:31;8.00;;;7.25;;
15342;SDS011;7771;48.478;8.936;2023-05-08T08:54:07;11.38;;;8.50;;
15342;SDS011;7771;48.478;8.936;2023-05-08T08:56:31;9.43;;;8.18;;
15342;SDS011;7771;48.478;8.936;2023-05-08T08:58:57;8.60;;;7.80;;
15342;SDS011;7771;48.478;8.936;2023-05-08T09:01:24;9.40;;;7.45;;
15342;SDS011;7771;48.478;8.936;2023-05-08T09:03:52;9.10;;;8.20;;
15342;SDS011;7771;48.478;8.936;2023-05-08T09:06:19;9.20;;;7.87;;
15342;SDS011;7771;48.478;8.936;2023-05-08T09:08:46;9.57;;;8.38;;
15342;SDS011;7771;48.478;8.936;2023-05-08T09:11:14;10.30;;;8.32;;
15342;SDS011;7771;48.478;8.936;2023-05-08T09:13:41;9.02;;;8.13;;
15342;SDS011;7771;48.478;8.936;2023-05-08T09:16:08;10.00;;;8.50;;
15342;SDS011;7771;48.478;8.936;2023-05-08T09:18:35;7.82;;;7.05;;
15342;SDS011;7771;48.478;8.936;2023-05-08T09:21:02;7.95;;;7.15;;
15342;SDS011;7771;48.478;8.936;2023-05-08T09:23:28;9.18;;;8.27;;
15342;SDS011;7771;48.478;8.936;2023-05-08T09:25:55;9.38;;;8.48;;
15342;SDS011;7771;48.478;8.936;2023-05-08T09:28:22;10.05;;;8.70;;
15342;SDS011;7771;48.478;8.936;2023-05-08T09:30:51;10.35;;;9.25;;
15342;SDS011;7771;48.478;8.936;2023-05-08T09:33:20;9.85;;;8.88;;
15342;SDS011;7771;48.478;8.936;2023-05-08T09:35:46;10.68;;;9.63;;
15342;SDS011;7771;48.478;8.936;2023-05-08T09:41:04;9.85;;;8.85;;
15342;SDS011;7771;48.478;8.936;2023-05-08T09:43:27;11.05;;;9.15;;
15342;SDS011;7771;48.478;8.936;2023-05-08T09:45:54;12.57;;;8.23;;
15342;SDS011;7771;48.478;8.936;2023-05-08T09:51:04;11.07;;;8.77;;
15342;SDS011;7771;48.478;8.936;2023-05-08T09:53:32;8.50;;;7.70;;
15342;SDS011;7771;48.478;8.936;2023-05-08T09:55:59;11.23;;;8.95;;
15342;SDS011;7771;48.478;8.936;2023-05-08T09:58:36;9.45;;;8.57;;
15342;SDS011;7771;48.478;8.936;2023-05-08T10:00:54;9.75;;;8.65;;
15342;SDS011;7771;48.478;8.936;2023-05-08T10:03:21;11.80;;;9.15;;
15342;SDS011;7771;48.478;8.936;2023-05-08T10:05:47;9.63;;;8.30;;
15342;SDS011;7771;48.478;8.936;2023-05-08T10:08:18;11.23;;;9.35;;
15342;SDS011;7771;48.478;8.936;2023-05-08T10:10:48;9.45;;;8.50;;
15342;SDS011;7771;48.478;8.936;2023-05-08T10:13:15;8.73;;;7.82;;
15342;SDS011;7771;48.478;8.936;2023-05-08T10:15:43;11.27;;;9.70;;
15342;SDS011;7771;48.478;8.936;2023-05-08T10:18:10;14.50;;;11.18;;
15342;SDS011;7771;48.478;8.936;2023-05-08T10:20:38;11.18;;;9.65;;
15342;SDS011;7771;48.478;8.936;2023-05-08T10:23:06;9.63;;;8.23;;
15342;SDS011;7771;48.478;8.936;2023-05-08T10:25:31;8.65;;;7.72;;
15342;SDS011;7771;48.478;8.936;2023-05-08T10:28:06;11.88;;;10.48;;
15342;SDS011;7771;48.478;8.936;2023-05-08T10:30:32;7.57;;;6.72;;
15342;SDS011;7771;48.478;8.936;2023-05-08T10:32:58;6.37;;;5.78;;
15342;SDS011;7771;48.478;8.936;2023-05-08T10:35:26;4.97;;;3.97;;
15342;SDS011;7771;48.478;8.936;2023-05-08T10:37:53;5.55;;;5.00;;
15342;SDS011;7771;48.478;8.936;2023-05-08T10:40:22;7.18;;;5.72;;
15342;SDS011;7771;48.478;8.936;2023-05-08T10:42:48;6.60;;;5.90;;
15342;SDS011;7771;48.478;8.936;2023-05-08T10:45:16;6.70;;;5.85;;
15342;SDS011;7771;48.478;8.936;2023-05-08T10:47:50;8.13;;;6.60;;
15342;SDS011;7771;48.478;8.936;2023-05-08T10:50:22;9.10;;;6.87;;
15342;SDS011;7771;48.478;8.936;2023-05-08T10:52:52;8.65;;;6.45;;
15342;SDS011;7771;48.478;8.936;2023-05-08T10:55:22;7.78;;;7.07;;
15342;SDS011;7771;48.478;8.936;2023-05-08T11:00:30;6.85;;;6.12;;
15342;SDS011;7771;48.478;8.936;2023-05-08T11:03:05;7.65;;;6.95;;
15342;SDS011;7771;48.478;8.936;2023-05-08T11:05:43;7.95;;;7.20;;
15342;SDS011;7771;48.478;8.936;2023-05-08T11:08:16;8.25;;;6.80;;
15342;SDS011;7771;48.478;8.936;2023-05-08T11:10:57;8.68;;;7.68;;
15342;SDS011;7771;48.478;8.936;2023-05-08T11:13:27;8.23;;;7.35;;
15342;SDS011;7771;48.478;8.936;2023-05-08T11:15:55;7.53;;;6.55;;
15342;SDS011;7771;48.478;8.936;2023-05-08T11:18:22;8.98;;;5.70;;
15342;SDS011;7771;48.478;8.936;2023-05-08T11:23:24;5.18;;;4.70;;
15342;SDS011;7771;48.478;8.936;2023-05-08T11:26:01;6.07;;;5.28;;
15342;SDS011;7771;48.478;8.936;2023-05-08T11:28:30;6.15;;;5.07;;
15342;SDS011;7771;48.478;8.936;2023-05-08T11:31:02;4.90;;;4.50;;
15342;SDS011;7771;48.478;8.936;2023-05-08T11:33:31;5.05;;;4.55;;
15342;SDS011;7771;48.478;8.936;2023-05-08T11:35:59;4.97;;;4.47;;
15342;SDS011;7771;48.478;8.936;2023-05-08T11:38:27;6.60;;;5.12;;
15342;SDS011;7771;48.478;8.936;2023-05-08T11:40:55;5.70;;;5.20;;
15342;SDS011;7771;48.478;8.936;2023-05-08T11:43:25;6.15;;;5.62;;
15342;SDS011;7771;48.478;8.936;2023-05-08T11:45:53;4.70;;;4.22;;
15342;SDS011;7771;48.478;8.936;2023-05-08T11:48:21;4.35;;;3.95;;
15342;SDS011;7771;48.478;8.936;2023-05-08T11:50:48;5.30;;;3.90;;
15342;SDS011;7771;48.478;8.936;2023-05-08T11:53:15;4.93;;;4.00;;
15342;SDS011;7771;48.478;8.936;2023-05-08T11:55:41;3.85;;;3.45;;
15342;SDS011;7771;48.478;8.936;2023-05-08T11:58:10;4.53;;;3.80;;
15342;SDS011;7771;48.478;8.936;2023-05-08T12:00:39;3.92;;;3.58;;
15342;SDS011;7771;48.478;8.936;2023-05-08T12:03:05;4.05;;;3.65;;
15342;SDS011;7771;48.478;8.936;2023-05-08T12:05:32;3.78;;;3.47;;
15342;SDS011;7771;48.478;8.936;2023-05-08T12:07:58;3.87;;;3.53;;
15342;SDS011;7771;48.478;8.936;2023-05-08T12:10:26;4.57;;;3.60;;
15342;SDS011;7771;48.478;8.936;2023-05-08T12:12:52;3.35;;;2.90;;
15342;SDS011;7771;48.478;8.936;2023-05-08T12:15:22;3.30;;;3.00;;
15342;SDS011;7771;48.478;8.936;2023-05-08T12:17:48;3.53;;;3.08;;
15342;SDS011;7771;48.478;8.936;2023-05-08T12:20:15;4.32;;;3.08;;
15342;SDS011;7771;48.478;8.936;2023-05-08T12:22:48;3.35;;;3.05;;
15342;SDS011;7771;48.478;8.936;2023-05-08T12:25:09;3.50;;;3.20;;
15342;SDS011;7771;48.478;8.936;2023-05-08T12:27:36;3.37;;;2.85;;
15342;SDS011;7771;48.478;8.936;2023-05-08T12:30:05;3.10;;;2.67;;
15342;SDS011;7771;48.478;8.936;2023-05-08T12:32:34;3.15;;;2.95;;
15342;SDS011;7771;48.478;8.936;2023-05-08T12:34:59;3.42;;;3.12;;
15342;SDS011;7771;48.478;8.936;2023-05-08T12:37:26;3.25;;;2.97;;
15342;SDS011;7771;48.478;8.936;2023-05-08T12:39:53;3.72;;;3.00;;
15342;SDS011;7771;48.478;8.936;2023-05-08T12:42:21;3.22;;;2.85;;
15342;SDS011;7771;48.478;8.936;2023-05-08T12:44:50;3.28;;;2.97;;
15342;SDS011;7771;48.478;8.936;2023-05-08T12:47:18;3.17;;;2.87;;
15342;SDS011;7771;48.478;8.936;2023-05-08T12:49:46;3.60;;;3.30;;
15342;SDS011;7771;48.478;8.936;2023-05-08T12:52:15;4.72;;;3.05;;
15342;SDS011;7771;48.478;8.936;2023-05-08T12:54:45;3.05;;;2.72;;
15342;SDS011;7771;48.478;8.936;2023-05-08T12:57:13;3.45;;;3.10;;
15342;SDS011;7771;48.478;8.936;2023-05-08T12:59:40;2.80;;;2.53;;
15342;SDS011;7771;48.478;8.936;2023-05-08T13:02:12;3.40;;;3.10;;
15342;SDS011;7771;48.478;8.936;2023-05-08T13:04:41;3.37;;;3.08;;
15342;SDS011;7771;48.478;8.936;2023-05-08T13:07:07;4.12;;;3.70;;
15342;SDS011;7771;48.478;8.936;2023-05-08T13:09:34;3.78;;;2.42;;
15342;SDS011;7771;48.478;8.936;2023-05-08T13:12:02;3.45;;;3.15;;
15342;SDS011;7771;48.478;8.936;2023-05-08T13:14:30;3.40;;;3.10;;
15342;SDS011;7771;48.478;8.936;2023-05-08T13:16:56;4.47;;;2.92;;
15342;SDS011;7771;48.478;8.936;2023-05-08T13:19:23;3.83;;;3.35;;
15342;SDS011;7771;48.478;8.936;2023-05-08T13:21:51;3.47;;;3.17;;
15342;SDS011;7771;48.478;8.936;2023-05-08T13:24:18;3.70;;;3.40;;
15342;SDS011;7771;48.478;8.936;2023-05-08T13:26:45;3.70;;;3.40;;
15342;SDS011;7771;48.478;8.936;2023-05-08T13:29:12;6.60;;;5.40;;
15342;SDS011;7771;48.478;8.936;2023-05-08T13:31:39;3.87;;;3.50;;
15342;SDS011;7771;48.478;8.936;2023-05-08T13:34:06;5.18;;;3.65;;
15342;SDS011;7771;48.478;8.936;2023-05-08T13:36:34;4.40;;;3.78;;
15342;SDS011;7771;48.478;8.936;2023-05-08T13:39:01;3.40;;;3.10;;
15342;SDS011;7771;48.478;8.936;2023-05-08T13:41:28;6.47;;;3.95;;
15342;SDS011;7771;48.478;8.936;2023-05-08T13:43:55;4.28;;;3.83;;
15342;SDS011;7771;48.478;8.936;2023-05-08T13:46:22;4.57;;;4.18;;
15342;SDS011;7771;48.478;8.936;2023-05-08T13:48:49;4.35;;;3.95;;
15342;SDS011;7771;48.478;8.936;2023-05-08T13:51:17;5.18;;;4.68;;
15342;SDS011;7771;48.478;8.936;2023-05-08T13:53:44;5.25;;;4.75;;
15342;SDS011;7771;48.478;8.936;2023-05-08T13:56:10;5.28;;;4.43;;
15342;SDS011;7771;48.478;8.936;2023-05-08T13:58:38;5.18;;;4.35;;
15342;SDS011;7771;48.478;8.936;2023-05-08T14:01:04;4.75;;;4.32;;
15342;SDS011;7771;48.478;8.936;2023-05-08T14:03:32;4.47;;;4.07;;
15342;SDS011;7771;48.478;8.936;2023-05-08T14:06:00;5.82;;;5.32;;
15342;SDS011;7771;48.478;8.936;2023-05-08T14:08:28;6.22;;;5.62;;
15342;SDS011;7771;48.478;8.936;2023-05-08T14:10:54;5.32;;;4.82;;
15342;SDS011;7771;48.478;8.936;2023-05-08T14:13:22;4.70;;;4.30;;
15342;SDS011;7771;48.478;8.936;2023-05-08T14:15:49;6.55;;;5.95;;
15342;SDS011;7771;48.478;8.936;2023-05-08T14:18:18;7.95;;;7.15;;
15342;SDS011;7771;48.478;8.936;2023-05-08T14:20:44;6.28;;;5.70;;
15342;SDS011;7771;48.478;8.936;2023-05-08T14:23:12;5.90;;;5.35;;
15342;SDS011;7771;48.478;8.936;2023-05-08T14:25:41;4.85;;;4.45;;
15342;SDS011;7771;48.478;8.936;2023-05-08T14:28:09;6.75;;;5.53;;
15342;SDS011;7771;48.478;8.936;2023-05-08T14:30:35;5.47;;;4.97;;
15342;SDS011;7771;48.478;8.936;2023-05-08T14:33:03;4.87;;;4.18;;
15342;SDS011;7771;48.478;8.936;2023-05-08T14:35:30;5.05;;;4.55;;
15342;SDS011;7771;48.478;8.936;2023-05-08T14:37:57;6.32;;;5.72;;
15342;SDS011;7771;48.478;8.936;2023-05-08T14:40:24;6.53;;;5.75;;
15342;SDS011;7771;48.478;8.936;2023-05-08T14:42:51;6.00;;;5.43;;
15342;SDS011;7771;48.478;8.936;2023-05-08T14:45:18;5.95;;;5.37;;
15342;SDS011;7771;48.478;8.936;2023-05-08T14:47:45;7.80;;;6.10;;
15342;SDS011;7771;48.478;8.936;2023-05-08T14:50:12;5.35;;;4.70;;
15342;SDS011;7771;48.478;8.936;2023-05-08T14:52:38;6.93;;;5.62;;
15342;SDS011;7771;48.478;8.936;2023-05-08T14:55:05;4.93;;;4.53;;
15342;SDS011;7771;48.478;8.936;2023-05-08T14:57:32;5.50;;;4.90;;
15342;SDS011;7771;48.478;8.936;2023-05-08T15:00:01;6.97;;;6.37;;
15342;SDS011;7771;48.478;8.936;2023-05-08T15:02:28;7.30;;;6.62;;
15342;SDS011;7771;48.478;8.936;2023-05-08T15:04:54;6.78;;;6.18;;
15342;SDS011;7771;48.478;8.936;2023-05-08T15:07:22;7.30;;;6.60;;
15342;SDS011;7771;48.478;8.936;2023-05-08T15:09:50;9.05;;;6.20;;
15342;SDS011;7771;48.478;8.936;2023-05-08T15:12:16;7.53;;;6.72;;
15342;SDS011;7771;48.478;8.936;2023-05-08T15:14:43;5.60;;;5.10;;
15342;SDS011;7771;48.478;8.936;2023-05-08T15:17:10;5.80;;;5.10;;
15342;SDS011;7771;48.478;8.936;2023-05-08T15:19:37;6.28;;;5.40;;
15342;SDS011;7771;48.478;8.936;2023-05-08T15:22:03;5.85;;;5.20;;